Time;durP1;ratioP1;P1;durP2;ratioP2;P2;SDS_P1;SDS_P2;PMS_P1;PMS_P2;Temp;Humidity;BMP_temperature;BMP_pressure;BME280_temperature;BME280_humidity;BME280_pressure;Samples;Min_cycle;Max_cycle;Signal;HPM_P1;HPM_P2
2022/06/16 00:01:30;;;;;;;7.55;5.10;;;;;;;;;;5060851;28;20089;-73
2022/06/16 00:03:56;;;;;;;5.40;4.90;;;;;;;;;;5061674;28;20025;-73
2022/06/16 00:06:23;;;;;;;5.70;4.32;;;;;;;;;;5060140;28;20086;-73
2022/06/16 00:08:49;;;;;;;4.75;4.35;;;;;;;;;;5063181;28;20044;-73
2022/06/16 00:11:19;;;;;;;5.13;4.50;;;;;;;;;;5054416;28;20392;-73
2022/06/16 00:13:45;;;;;;;5.07;4.57;;;;;;;;;;5057492;28;20070;-73
2022/06/16 00:16:11;;;;;;;4.97;4.28;;;;;;;;;;5056109;28;20045;-73
2022/06/16 00:18:38;;;;;;;5.13;4.60;;;;;;;;;;5057922;28;20028;-73
2022/06/16 00:21:05;;;;;;;6.80;4.55;;;;;;;;;;5061490;28;20480;-73
2022/06/16 00:23:32;;;;;;;5.38;4.65;;;;;;;;;;5057831;28;20021;-73
2022/06/16 00:25:58;;;;;;;5.25;4.75;;;;;;;;;;5046596;28;20389;-73
2022/06/16 00:28:24;;;;;;;5.65;4.43;;;;;;;;;;5054919;28;20025;-69
2022/06/16 00:30:50;;;;;;;5.10;4.55;;;;;;;;;;5059623;28;20033;-71
2022/06/16 00:33:16;;;;;;;5.28;4.50;;;;;;;;;;5051834;28;20074;-69
2022/06/16 00:35:42;;;;;;;5.90;4.10;;;;;;;;;;5058417;28;20037;-69
2022/06/16 00:38:09;;;;;;;4.60;4.10;;;;;;;;;;5058502;28;20044;-70
2022/06/16 00:40:35;;;;;;;5.07;4.60;;;;;;;;;;5050958;28;20036;-70
2022/06/16 00:43:01;;;;;;;6.72;4.25;;;;;;;;;;5054547;28;20016;-72
2022/06/16 00:45:47;;;;;;;4.88;4.38;;;;;;;;;;5053692;28;20029;-69
2022/06/16 00:48:16;;;;;;;4.55;3.75;;;;;;;;;;5054068;28;20073;-70
2022/06/16 00:50:42;;;;;;;5.07;4.28;;;;;;;;;;5057720;28;20028;-70
2022/06/16 00:53:09;;;;;;;4.10;3.70;;;;;;;;;;5060914;28;20087;-71
2022/06/16 00:55:35;;;;;;;5.80;4.03;;;;;;;;;;5044916;28;20036;-72
2022/06/16 00:58:02;;;;;;;5.65;4.32;;;;;;;;;;5050774;28;20044;-74
2022/06/16 01:00:36;;;;;;;5.88;4.20;;;;;;;;;;5064838;28;20032;-74
2022/06/16 01:03:02;;;;;;;4.90;4.40;;;;;;;;;;5058720;28;20020;-74
2022/06/16 01:05:28;;;;;;;3.83;3.53;;;;;;;;;;5057222;28;20024;-74
2022/06/16 01:07:56;;;;;;;4.80;3.97;;;;;;;;;;5062214;28;20480;-74
2022/06/16 01:10:23;;;;;;;5.30;4.80;;;;;;;;;;5054018;28;20472;-73
2022/06/16 01:16:00;;;;;;;5.70;4.85;;;;;;;;;;5058400;28;20139;-76
2022/06/16 01:18:45;;;;;;;6.07;4.60;;;;;;;;;;5054382;28;20376;-76
2022/06/16 01:21:20;;;;;;;5.82;4.60;;;;;;;;;;5053182;28;20063;-76
2022/06/16 01:23:57;;;;;;;5.38;4.80;;;;;;;;;;5052269;28;20491;-76
2022/06/16 01:26:25;;;;;;;6.35;4.93;;;;;;;;;;5064077;28;20091;-76
2022/06/16 01:29:03;;;;;;;7.50;5.25;;;;;;;;;;5057199;28;20033;-76
2022/06/16 01:31:41;;;;;;;7.28;5.45;;;;;;;;;;5037045;28;20027;-75
2022/06/16 01:34:10;;;;;;;6.45;5.65;;;;;;;;;;5051880;28;20029;-76
2022/06/16 01:37:01;;;;;;;7.93;5.90;;;;;;;;;;5054162;28;20039;-76
2022/06/16 01:39:33;;;;;;;7.25;5.90;;;;;;;;;;5056115;28;20537;-76
2022/06/16 01:42:09;;;;;;;4.95;4.15;;;;;;;;;;5060263;28;20025;-76
2022/06/16 01:44:53;;;;;;;6.68;4.00;;;;;;;;;;5052446;28;20506;-76
2022/06/16 01:47:20;;;;;;;5.38;3.58;;;;;;;;;;5055550;28;20070;-76
2022/06/16 01:49:59;;;;;;;4.00;3.60;;;;;;;;;;5050368;28;20029;-76
2022/06/16 01:52:28;;;;;;;4.10;3.60;;;;;;;;;;5051202;28;20086;-75
2022/06/16 01:54:57;;;;;;;4.97;3.25;;;;;;;;;;5052990;28;20035;-76
2022/06/16 01:57:33;;;;;;;4.55;3.28;;;;;;;;;;5053982;28;20040;-76
2022/06/16 02:00:02;;;;;;;3.72;3.38;;;;;;;;;;5057555;28;20032;-76
2022/06/16 02:02:31;;;;;;;3.97;3.58;;;;;;;;;;5058429;28;20016;-76
2022/06/16 02:04:57;;;;;;;3.92;3.33;;;;;;;;;;5052573;28;20031;-76
2022/06/16 02:07:27;;;;;;;4.53;3.53;;;;;;;;;;5058706;28;20103;-75
2022/06/16 02:09:57;;;;;;;5.00;3.28;;;;;;;;;;5055294;28;20021;-76
2022/06/16 02:15:12;;;;;;;4.35;3.30;;;;;;;;;;5060005;28;20738;-76
2022/06/16 02:17:38;;;;;;;3.78;3.30;;;;;;;;;;5052961;28;20049;-76
2022/06/16 02:20:05;;;;;;;4.10;3.45;;;;;;;;;;5056593;28;20020;-76
2022/06/16 02:22:31;;;;;;;4.85;3.50;;;;;;;;;;5054028;28;20021;-76
2022/06/16 02:24:58;;;;;;;5.63;3.67;;;;;;;;;;5058772;28;20051;-76
2022/06/16 02:27:24;;;;;;;9.23;3.78;;;;;;;;;;5055551;28;20025;-75
2022/06/16 02:29:50;;;;;;;6.25;3.90;;;;;;;;;;5061331;28;20027;-76
2022/06/16 02:32:16;;;;;;;4.65;3.20;;;;;;;;;;5057014;28;20032;-76
2022/06/16 02:34:48;;;;;;;5.55;3.63;;;;;;;;;;5053554;28;20032;-75
2022/06/16 02:37:14;;;;;;;6.78;4.57;;;;;;;;;;5055204;28;20507;-75
2022/06/16 02:39:56;;;;;;;4.43;3.97;;;;;;;;;;5056501;28;20119;-75
2022/06/16 02:42:41;;;;;;;4.80;4.28;;;;;;;;;;5054895;28;20094;-75
2022/06/16 02:45:13;;;;;;;6.05;4.20;;;;;;;;;;5052662;28;20033;-74
2022/06/16 02:47:57;;;;;;;4.28;3.60;;;;;;;;;;5063019;28;20032;-74
2022/06/16 02:50:26;;;;;;;5.22;3.65;;;;;;;;;;5059879;28;20021;-75
2022/06/16 02:52:57;;;;;;;4.30;3.55;;;;;;;;;;5063610;28;20032;-74
2022/06/16 02:55:27;;;;;;;3.90;3.33;;;;;;;;;;5063610;28;20064;-74
2022/06/16 02:57:55;;;;;;;5.40;3.88;;;;;;;;;;5059616;28;20112;-74
2022/06/16 03:00:26;;;;;;;4.13;3.72;;;;;;;;;;5061776;28;20032;-74
2022/06/16 03:02:53;;;;;;;6.50;3.80;;;;;;;;;;5067384;28;20412;-74
2022/06/16 03:05:19;;;;;;;6.40;3.97;;;;;;;;;;5065981;28;20052;-74
2022/06/16 03:07:46;;;;;;;5.65;3.72;;;;;;;;;;5059325;28;20428;-74
2022/06/16 03:10:13;;;;;;;3.72;3.42;;;;;;;;;;5062249;28;20318;-74
2022/06/16 03:12:39;;;;;;;3.28;2.97;;;;;;;;;;5063331;28;20013;-74
2022/06/16 03:15:06;;;;;;;5.00;3.40;;;;;;;;;;5062513;28;20085;-74
2022/06/16 03:17:32;;;;;;;3.22;2.92;;;;;;;;;;5057178;28;20488;-74
2022/06/16 03:19:59;;;;;;;3.42;3.13;;;;;;;;;;5056389;28;21455;-74
2022/06/16 03:22:25;;;;;;;3.88;3.47;;;;;;;;;;5054881;28;20460;-74
2022/06/16 03:24:51;;;;;;;4.28;3.58;;;;;;;;;;5062293;28;20028;-74
2022/06/16 03:27:17;;;;;;;4.32;3.63;;;;;;;;;;5057549;28;20041;-75
2022/06/16 03:29:43;;;;;;;4.32;3.50;;;;;;;;;;5060107;28;20040;-73
2022/06/16 03:32:10;;;;;;;5.55;3.30;;;;;;;;;;5053919;28;20024;-74
2022/06/16 03:34:36;;;;;;;4.00;2.88;;;;;;;;;;5057522;28;20388;-74
2022/06/16 03:37:02;;;;;;;3.63;3.33;;;;;;;;;;5055588;28;20028;-74
2022/06/16 03:39:28;;;;;;;3.60;3.08;;;;;;;;;;5052143;28;20040;-74
2022/06/16 03:41:55;;;;;;;3.55;3.25;;;;;;;;;;5057581;28;20380;-75
2022/06/16 03:44:21;;;;;;;5.97;3.22;;;;;;;;;;5057389;28;20528;-74
2022/06/16 03:46:47;;;;;;;4.00;3.20;;;;;;;;;;5054025;28;20037;-74
2022/06/16 03:49:13;;;;;;;3.42;2.95;;;;;;;;;;5048848;28;20024;-74
2022/06/16 03:51:39;;;;;;;3.63;3.17;;;;;;;;;;5052550;28;20136;-74
2022/06/16 03:54:05;;;;;;;7.00;3.17;;;;;;;;;;5058827;28;20095;-74
2022/06/16 03:56:31;;;;;;;4.10;3.10;;;;;;;;;;5051814;28;20041;-74
2022/06/16 03:58:57;;;;;;;5.38;3.38;;;;;;;;;;5054432;28;20029;-74
2022/06/16 04:01:24;;;;;;;4.43;2.95;;;;;;;;;;5054944;28;20021;-74
2022/06/16 04:04:00;;;;;;;5.88;3.33;;;;;;;;;;5058038;28;20021;-74
2022/06/16 04:06:27;;;;;;;5.55;3.10;;;;;;;;;;5051182;28;20027;-74
2022/06/16 04:08:53;;;;;;;3.83;3.15;;;;;;;;;;5060277;28;20021;-74
2022/06/16 04:11:28;;;;;;;3.30;2.80;;;;;;;;;;5054918;28;20040;-74
2022/06/16 04:14:00;;;;;;;7.75;3.42;;;;;;;;;;5057468;28;20061;-74
2022/06/16 04:16:26;;;;;;;;;;;;;;;;;;5055382;28;20021;-71
2022/06/16 04:18:52;;;;;;;5.95;3.55;;;;;;;;;;5058978;28;19951;-71
2022/06/16 04:21:18;;;;;;;4.15;3.28;;;;;;;;;;5057244;28;20043;-70
2022/06/16 04:23:45;;;;;;;6.55;4.25;;;;;;;;;;5062910;28;20024;-71
2022/06/16 04:26:11;;;;;;;6.20;4.38;;;;;;;;;;5062243;28;20651;-71
2022/06/16 04:28:37;;;;;;;5.75;4.65;;;;;;;;;;5062547;28;20357;-70
2022/06/16 04:31:03;;;;;;;9.60;4.90;;;;;;;;;;5062626;28;20474;-71
2022/06/16 04:33:29;;;;;;;7.75;6.10;;;;;;;;;;5061328;28;20059;-72
2022/06/16 04:35:56;;;;;;;7.30;5.90;;;;;;;;;;5062912;28;20028;-71
2022/06/16 04:38:22;;;;;;;7.57;5.60;;;;;;;;;;5062624;28;20174;-71
2022/06/16 04:40:48;;;;;;;5.93;5.18;;;;;;;;;;5061614;28;20944;-71
2022/06/16 04:43:15;;;;;;;6.80;5.45;;;;;;;;;;5062511;28;20558;-71
2022/06/16 04:45:45;;;;;;;6.78;5.47;;;;;;;;;;5062304;28;20108;-71
2022/06/16 04:48:11;;;;;;;12.52;6.07;;;;;;;;;;5062540;28;20032;-73
2022/06/16 04:50:37;;;;;;;14.38;5.45;;;;;;;;;;5062373;28;20035;-69
2022/06/16 04:53:05;;;;;;;8.23;6.15;;;;;;;;;;5062611;28;20040;-70
2022/06/16 04:55:31;;;;;;;10.00;5.68;;;;;;;;;;5061029;28;20033;-69
2022/06/16 04:57:58;;;;;;;7.93;4.85;;;;;;;;;;5062958;28;20688;-70
2022/06/16 05:00:24;;;;;;;12.38;5.07;;;;;;;;;;5062421;28;20082;-69
2022/06/16 05:02:50;;;;;;;6.38;5.78;;;;;;;;;;5062488;28;20024;-70
2022/06/16 05:05:17;;;;;;;8.35;5.53;;;;;;;;;;5060863;28;20032;-68
2022/06/16 05:07:44;;;;;;;11.27;6.18;;;;;;;;;;5063828;28;20021;-68
2022/06/16 05:10:11;;;;;;;7.20;6.20;;;;;;;;;;5082807;28;20028;-69
2022/06/16 05:12:37;;;;;;;6.38;5.53;;;;;;;;;;5080372;28;20016;-68
2022/06/16 05:15:04;;;;;;;8.50;4.93;;;;;;;;;;5061188;28;20044;-69
2022/06/16 05:17:30;;;;;;;8.05;5.20;;;;;;;;;;5057444;28;20021;-80
2022/06/16 05:19:56;;;;;;;7.38;5.20;;;;;;;;;;5052769;28;20093;-75
2022/06/16 05:22:24;;;;;;;9.63;5.93;;;;;;;;;;5074621;28;20054;-80
2022/06/16 05:24:50;;;;;;;13.07;5.85;;;;;;;;;;5053587;28;20039;-77
2022/06/16 05:27:17;;;;;;;6.53;5.85;;;;;;;;;;5073107;28;20400;-69
2022/06/16 05:29:43;;;;;;;7.45;5.40;;;;;;;;;;5075030;28;20449;-69
2022/06/16 05:32:10;;;;;;;10.25;5.75;;;;;;;;;;5070755;28;20036;-80
2022/06/16 05:34:37;;;;;;;11.43;6.32;;;;;;;;;;5068835;28;20039;-73
2022/06/16 05:37:03;;;;;;;10.98;6.82;;;;;;;;;;5070497;28;20024;-69
2022/06/16 05:39:29;;;;;;;8.90;6.55;;;;;;;;;;5073815;28;20391;-71
2022/06/16 05:41:56;;;;;;;10.85;6.28;;;;;;;;;;5072834;28;20027;-77
2022/06/16 05:44:22;;;;;;;9.90;6.65;;;;;;;;;;5071287;28;20048;-68
2022/06/16 05:46:48;;;;;;;8.88;5.88;;;;;;;;;;5069704;28;20032;-68
2022/06/16 05:49:15;;;;;;;10.88;6.30;;;;;;;;;;5070413;28;20070;-68
2022/06/16 05:51:41;;;;;;;8.77;6.25;;;;;;;;;;5069116;28;20074;-72
2022/06/16 05:54:08;;;;;;;7.35;5.53;;;;;;;;;;5069743;28;20036;-67
2022/06/16 05:56:35;;;;;;;6.35;5.22;;;;;;;;;;5075846;28;20035;-68
2022/06/16 05:59:01;;;;;;;5.70;5.10;;;;;;;;;;5053269;28;20013;-68
2022/06/16 06:01:27;;;;;;;6.93;6.18;;;;;;;;;;5073849;28;20046;-68
2022/06/16 06:03:53;;;;;;;15.40;5.47;;;;;;;;;;5072204;28;20016;-73
2022/06/16 06:06:19;;;;;;;7.43;5.50;;;;;;;;;;5069660;28;20109;-67
2022/06/16 06:17:13;;;;;;;6.55;5.05;;;;;;;;;;5067891;28;20085;-68
2022/06/16 06:19:39;;;;;;;6.25;4.10;;;;;;;;;;5076422;28;20039;-69
2022/06/16 06:22:16;;;;;;;5.90;3.85;;;;;;;;;;5080321;28;20046;-80
2022/06/16 06:24:43;;;;;;;5.15;4.32;;;;;;;;;;5051483;28;20176;-70
2022/06/16 06:27:29;;;;;;;4.47;4.07;;;;;;;;;;5060268;28;20036;-77
2022/06/16 06:29:55;;;;;;;5.22;4.40;;;;;;;;;;5053025;28;20048;-79
2022/06/16 06:32:22;;;;;;;7.25;4.57;;;;;;;;;;5062649;28;20104;-80
2022/06/16 06:34:49;;;;;;;4.78;4.38;;;;;;;;;;5064789;28;20037;-78
2022/06/16 06:37:17;;;;;;;5.28;3.55;;;;;;;;;;5063371;28;20103;-80
2022/06/16 06:39:43;;;;;;;7.15;4.30;;;;;;;;;;5062706;28;20052;-73
2022/06/16 06:42:09;;;;;;;4.38;3.97;;;;;;;;;;5064921;28;20020;-77
2022/06/16 06:44:36;;;;;;;5.00;4.20;;;;;;;;;;5057598;28;20036;-75
2022/06/16 06:47:03;;;;;;;4.80;3.78;;;;;;;;;;5049693;28;20043;-77
2022/06/16 06:49:30;;;;;;;4.97;3.53;;;;;;;;;;5048804;28;20024;-74
2022/06/16 06:51:56;;;;;;;3.70;3.40;;;;;;;;;;5046700;28;20021;-74
2022/06/16 06:54:22;;;;;;;4.13;2.78;;;;;;;;;;5053864;28;20094;-75
2022/06/16 06:56:50;;;;;;;4.70;3.00;;;;;;;;;;5056150;28;20037;-72
2022/06/16 06:59:18;;;;;;;5.25;3.10;;;;;;;;;;5053378;28;20033;-76
2022/06/16 07:01:47;;;;;;;3.42;2.95;;;;;;;;;;5061492;28;20519;-79
2022/06/16 07:04:14;;;;;;;7.32;3.97;;;;;;;;;;5061700;28;20013;-68
2022/06/16 07:06:41;;;;;;;5.50;3.58;;;;;;;;;;5062295;28;20123;-68
2022/06/16 07:09:08;;;;;;;5.22;4.13;;;;;;;;;;5050763;28;20087;-67
2022/06/16 07:11:34;;;;;;;4.97;4.47;;;;;;;;;;5051766;28;20036;-75
2022/06/16 07:14:00;;;;;;;7.00;4.05;;;;;;;;;;5056632;28;20220;-69
2022/06/16 07:16:26;;;;;;;10.20;4.57;;;;;;;;;;5062873;28;20110;-69
2022/06/16 07:18:52;;;;;;;5.55;4.35;;;;;;;;;;5059190;28;20468;-69
2022/06/16 07:21:19;;;;;;;5.75;4.20;;;;;;;;;;5052795;28;20033;-69
2022/06/16 07:23:45;;;;;;;7.38;4.28;;;;;;;;;;5048548;28;20048;-69
2022/06/16 07:26:11;;;;;;;4.72;4.07;;;;;;;;;;5062359;28;20035;-69
2022/06/16 07:28:37;;;;;;;4.35;3.72;;;;;;;;;;5062686;28;20063;-69
2022/06/16 07:31:04;;;;;;;4.13;3.60;;;;;;;;;;5045311;28;20102;-69
2022/06/16 07:33:30;;;;;;;5.38;4.00;;;;;;;;;;5062508;28;20016;-69
2022/06/16 07:35:57;;;;;;;7.60;4.00;;;;;;;;;;5062952;28;20036;-69
2022/06/16 07:38:25;;;;;;;9.90;4.90;;;;;;;;;;5059759;28;20032;-69
2022/06/16 07:40:52;;;;;;;5.13;3.85;;;;;;;;;;5062007;28;20054;-70
2022/06/16 07:43:18;;;;;;;7.60;5.07;;;;;;;;;;5073849;28;20028;-71
2022/06/16 07:45:45;;;;;;;12.50;7.20;;;;;;;;;;5074481;28;20081;-70
2022/06/16 07:48:11;;;;;;;15.93;7.10;;;;;;;;;;5071308;28;20024;-69
2022/06/16 07:50:37;;;;;;;17.88;10.27;;;;;;;;;;5074914;28;20140;-69
2022/06/16 07:53:05;;;;;;;23.88;11.90;;;;;;;;;;5070317;28;20039;-73
2022/06/16 07:55:31;;;;;;;26.17;11.88;;;;;;;;;;5068253;28;20123;-69
2022/06/16 07:57:58;;;;;;;12.05;7.13;;;;;;;;;;5073310;28;20020;-69
2022/06/16 08:00:26;;;;;;;9.05;5.30;;;;;;;;;;5063667;28;20111;-73
2022/06/16 08:02:54;;;;;;;8.93;5.43;;;;;;;;;;5069868;28;20029;-69
2022/06/16 08:05:20;;;;;;;9.55;5.28;;;;;;;;;;5063417;28;20051;-69
2022/06/16 08:07:46;;;;;;;7.35;4.45;;;;;;;;;;5065440;28;20030;-69
2022/06/16 08:10:19;;;;;;;5.00;4.50;;;;;;;;;;5072271;28;20056;-76
2022/06/16 08:12:45;;;;;;;7.13;5.60;;;;;;;;;;5069301;28;20032;-69
2022/06/16 08:15:12;;;;;;;20.65;14.20;;;;;;;;;;5061526;28;20032;-69
2022/06/16 08:17:39;;;;;;;24.25;16.00;;;;;;;;;;5061947;28;20021;-68
2022/06/16 08:20:06;;;;;;;37.58;25.13;;;;;;;;;;5060838;28;20818;-69
2022/06/16 08:22:33;;;;;;;40.03;25.67;;;;;;;;;;5059327;28;20676;-70
2022/06/16 08:24:59;;;;;;;17.58;9.98;;;;;;;;;;5068318;28;20071;-70
2022/06/16 08:27:29;;;;;;;5.20;4.47;;;;;;;;;;5063819;28;20661;-72
2022/06/16 08:29:55;;;;;;;7.07;4.60;;;;;;;;;;5072730;28;20028;-69
2022/06/16 08:32:22;;;;;;;7.93;5.60;;;;;;;;;;5059995;28;20640;-71
2022/06/16 08:34:49;;;;;;;7.40;3.35;;;;;;;;;;5060476;28;20464;-69
2022/06/16 08:37:15;;;;;;;5.75;3.75;;;;;;;;;;5066872;28;20028;-70
2022/06/16 08:39:42;;;;;;;4.43;3.80;;;;;;;;;;5064060;28;20036;-69
2022/06/16 08:42:28;;;;;;;7.68;4.65;;;;;;;;;;5064863;28;20032;-69
2022/06/16 08:45:00;;;;;;;5.13;3.83;;;;;;;;;;5069975;28;20039;-71
2022/06/16 08:47:36;;;;;;;4.88;3.60;;;;;;;;;;5053834;28;20423;-78
2022/06/16 08:50:22;;;;;;;3.42;3.08;;;;;;;;;;5071660;28;20118;-72
2022/06/16 08:52:54;;;;;;;3.92;2.58;;;;;;;;;;5065629;28;20027;-74
2022/06/16 08:55:20;;;;;;;4.45;2.38;;;;;;;;;;5061361;28;20141;-71
2022/06/16 08:58:02;;;;;;;7.88;3.42;;;;;;;;;;5071292;28;20024;-70
2022/06/16 09:00:33;;;;;;;6.13;2.83;;;;;;;;;;5065545;28;20024;-75
2022/06/16 09:03:07;;;;;;;3.67;2.38;;;;;;;;;;5073667;28;20093;-73
2022/06/16 09:05:52;;;;;;;3.83;2.45;;;;;;;;;;5063979;28;20058;-71
2022/06/16 09:08:31;;;;;;;4.95;2.72;;;;;;;;;;5066621;28;20024;-77
2022/06/16 09:10:59;;;;;;;2.70;2.40;;;;;;;;;;5064694;28;20033;-74
2022/06/16 09:13:44;;;;;;;8.02;3.40;;;;;;;;;;5063353;28;20387;-69
2022/06/16 09:16:19;;;;;;;3.63;2.67;;;;;;;;;;5053447;28;20044;-72
2022/06/16 09:18:49;;;;;;;3.20;2.88;;;;;;;;;;5047972;28;20713;-72
2022/06/16 09:21:38;;;;;;;4.40;3.08;;;;;;;;;;5055849;28;20244;-69
2022/06/16 09:24:23;;;;;;;6.15;3.20;;;;;;;;;;5050390;28;20058;-74
2022/06/16 09:26:53;;;;;;;4.20;3.20;;;;;;;;;;5059430;28;20028;-71
2022/06/16 09:29:29;;;;;;;5.35;3.60;;;;;;;;;;5058974;28;20491;-70
2022/06/16 09:32:04;;;;;;;3.40;3.10;;;;;;;;;;5058476;28;20594;-70
2022/06/16 09:34:36;;;;;;;5.85;3.40;;;;;;;;;;5052487;28;20937;-75
2022/06/16 09:37:22;;;;;;;4.03;3.38;;;;;;;;;;5057623;28;20025;-72
2022/06/16 09:39:54;;;;;;;5.22;3.70;;;;;;;;;;5057977;28;20101;-69
2022/06/16 09:42:33;;;;;;;6.15;3.78;;;;;;;;;;5039967;28;20512;-72
2022/06/16 09:44:59;;;;;;;4.15;3.72;;;;;;;;;;5057326;28;20024;-69
2022/06/16 09:47:28;;;;;;;6.05;4.18;;;;;;;;;;5061972;28;20400;-70
2022/06/16 09:50:08;;;;;;;6.43;4.00;;;;;;;;;;5053320;28;20385;-76
2022/06/16 09:52:54;;;;;;;6.15;4.03;;;;;;;;;;5055945;28;20119;-71
2022/06/16 09:55:23;;;;;;;6.55;4.10;;;;;;;;;;5052101;28;20033;-73
2022/06/16 09:58:16;;;;;;;5.93;4.40;;;;;;;;;;5058897;28;20116;-76
2022/06/16 10:00:42;;;;;;;6.00;4.60;;;;;;;;;;5054955;28;20040;-71
2022/06/16 10:03:29;;;;;;;5.47;4.28;;;;;;;;;;5056130;28;20037;-71
2022/06/16 10:06:00;;;;;;;9.38;5.28;;;;;;;;;;5057752;28;20040;-76
2022/06/16 10:08:32;;;;;;;6.55;5.72;;;;;;;;;;5059498;28;20035;-76
2022/06/16 10:11:07;;;;;;;5.57;5.00;;;;;;;;;;5058165;28;20028;-72
2022/06/16 10:13:46;;;;;;;5.05;4.55;;;;;;;;;;5052895;28;20017;-76
2022/06/16 10:16:14;;;;;;;4.03;3.63;;;;;;;;;;5057628;28;20033;-77
2022/06/16 10:18:40;;;;;;;4.60;4.20;;;;;;;;;;5061319;28;20064;-73
2022/06/16 10:21:09;;;;;;;4.45;3.70;;;;;;;;;;5062792;28;20107;-76
2022/06/16 10:23:39;;;;;;;4.38;3.97;;;;;;;;;;5054321;28;20060;-71
2022/06/16 10:26:07;;;;;;;6.35;3.78;;;;;;;;;;5063902;28;20028;-77
2022/06/16 10:28:38;;;;;;;7.22;3.72;;;;;;;;;;5058677;28;20027;-79
2022/06/16 10:31:06;;;;;;;3.70;3.40;;;;;;;;;;5062480;28;20816;-70
2022/06/16 10:33:35;;;;;;;6.63;3.40;;;;;;;;;;5062086;28;20024;-76
2022/06/16 10:36:04;;;;;;;9.23;3.92;;;;;;;;;;5058710;28;20055;-74
2022/06/16 10:38:35;;;;;;;6.95;3.95;;;;;;;;;;5042668;28;20749;-72
2022/06/16 10:41:03;;;;;;;4.82;3.58;;;;;;;;;;5058366;28;20139;-71
2022/06/16 10:43:31;;;;;;;4.07;3.28;;;;;;;;;;5065344;28;20024;-78
2022/06/16 10:46:07;;;;;;;3.95;3.15;;;;;;;;;;5059557;28;20025;-80
2022/06/16 10:48:36;;;;;;;7.50;3.53;;;;;;;;;;5038141;28;20089;-74
2022/06/16 10:51:07;;;;;;;10.13;5.28;;;;;;;;;;5055740;28;20416;-78
2022/06/16 10:53:36;;;;;;;5.03;3.80;;;;;;;;;;5057210;28;20029;-72
2022/06/16 10:56:04;;;;;;;9.50;4.47;;;;;;;;;;5058768;28;20555;-72
2022/06/16 10:58:42;;;;;;;4.80;3.97;;;;;;;;;;5057565;28;20489;-75
2022/06/16 11:01:16;;;;;;;5.47;3.50;;;;;;;;;;5055657;28;20032;-74
2022/06/16 11:03:43;;;;;;;4.95;4.32;;;;;;;;;;5045625;28;20094;-76
2022/06/16 11:06:12;;;;;;;7.32;4.78;;;;;;;;;;5059571;28;20059;-71
2022/06/16 11:08:40;;;;;;;13.45;4.88;;;;;;;;;;5060463;28;20886;-72
2022/06/16 11:11:09;;;;;;;9.75;4.35;;;;;;;;;;5069530;28;20063;-78
2022/06/16 11:13:38;;;;;;;7.38;3.63;;;;;;;;;;5068502;28;20067;-73
2022/06/16 11:16:10;;;;;;;6.28;3.63;;;;;;;;;;5062904;28;20037;-70
2022/06/16 11:18:37;;;;;;;9.23;4.78;;;;;;;;;;5057452;28;20453;-72
2022/06/16 11:21:12;;;;;;;4.95;3.33;;;;;;;;;;5076227;28;20480;-71
2022/06/16 11:23:44;;;;;;;5.57;3.25;;;;;;;;;;5083762;28;20035;-69
2022/06/16 11:26:24;;;;;;;6.30;3.13;;;;;;;;;;5084534;28;20033;-73
2022/06/16 11:28:55;;;;;;;5.38;3.65;;;;;;;;;;5069491;28;20039;-70
2022/06/16 11:31:26;;;;;;;4.20;3.13;;;;;;;;;;5069636;28;20427;-70
2022/06/16 11:34:09;;;;;;;3.92;3.38;;;;;;;;;;5063280;28;20032;-71
2022/06/16 11:36:48;;;;;;;4.00;3.60;;;;;;;;;;5069084;28;20040;-70
2022/06/16 11:39:23;;;;;;;4.70;3.30;;;;;;;;;;5082868;28;20499;-71
2022/06/16 11:41:53;;;;;;;3.53;2.88;;;;;;;;;;5053494;28;20032;-71
2022/06/16 11:44:38;;;;;;;5.18;3.30;;;;;;;;;;5061251;28;20028;-71
2022/06/16 11:47:12;;;;;;;4.32;3.00;;;;;;;;;;5077641;28;20028;-70
2022/06/16 11:49:57;;;;;;;4.07;3.13;;;;;;;;;;5075556;28;20099;-74
2022/06/16 11:52:41;;;;;;;4.00;3.05;;;;;;;;;;5064143;28;20024;-70
2022/06/16 11:55:31;;;;;;;4.63;3.50;;;;;;;;;;5073913;28;20036;-71
2022/06/16 11:58:15;;;;;;;7.35;3.25;;;;;;;;;;5063980;28;20016;-70
2022/06/16 12:00:50;;;;;;;4.78;3.47;;;;;;;;;;5073818;28;20120;-71
2022/06/16 12:03:19;;;;;;;4.82;3.50;;;;;;;;;;5074801;28;20039;-70
2022/06/16 12:05:52;;;;;;;3.92;3.20;;;;;;;;;;5075638;28;20080;-71
2022/06/16 12:08:18;;;;;;;5.45;3.10;;;;;;;;;;5056310;28;20336;-70
2022/06/16 12:10:50;;;;;;;3.88;3.47;;;;;;;;;;5074020;28;20081;-71
2022/06/16 12:13:28;;;;;;;4.72;2.97;;;;;;;;;;5061740;28;20032;-72
2022/06/16 12:16:14;;;;;;;4.20;3.65;;;;;;;;;;5074188;28;20585;-72
2022/06/16 12:18:53;;;;;;;5.43;3.35;;;;;;;;;;5071040;28;20029;-71
2022/06/16 12:21:23;;;;;;;4.32;2.70;;;;;;;;;;5060385;28;20028;-71
2022/06/16 12:24:08;;;;;;;4.57;3.20;;;;;;;;;;5058837;28;20036;-73
2022/06/16 12:26:51;;;;;;;3.35;3.05;;;;;;;;;;5060498;28;20091;-71
2022/06/16 12:29:17;;;;;;;3.90;3.40;;;;;;;;;;5060499;28;20052;-73
2022/06/16 12:31:54;;;;;;;7.15;3.28;;;;;;;;;;5060326;28;20036;-72
2022/06/16 12:34:33;;;;;;;3.90;2.72;;;;;;;;;;5058725;28;20040;-73
2022/06/16 12:37:01;;;;;;;4.53;3.13;;;;;;;;;;5059796;28;20045;-70
2022/06/16 12:39:33;;;;;;;4.68;3.60;;;;;;;;;;5059117;28;20044;-72
2022/06/16 12:42:04;;;;;;;3.67;3.22;;;;;;;;;;5059780;28;20024;-71
2022/06/16 12:44:33;;;;;;;6.20;3.00;;;;;;;;;;5058072;28;20075;-71
2022/06/16 12:47:06;;;;;;;5.93;3.00;;;;;;;;;;5059178;28;20032;-73
2022/06/16 12:49:35;;;;;;;3.53;3.00;;;;;;;;;;5059924;28;20024;-73
2022/06/16 12:52:07;;;;;;;4.20;3.00;;;;;;;;;;5058655;28;20036;-73
2022/06/16 12:54:38;;;;;;;3.63;3.08;;;;;;;;;;5058785;28;20016;-73
2022/06/16 12:57:09;;;;;;;5.75;3.55;;;;;;;;;;5060186;28;20037;-73
2022/06/16 12:59:50;;;;;;;3.25;2.55;;;;;;;;;;5059238;28;20094;-71
2022/06/16 13:02:19;;;;;;;4.85;2.83;;;;;;;;;;5060983;28;20032;-71
2022/06/16 13:04:46;;;;;;;4.13;3.25;;;;;;;;;;5060432;28;20020;-71
2022/06/16 13:07:15;;;;;;;3.88;3.20;;;;;;;;;;5062167;28;20029;-71
2022/06/16 13:09:42;;;;;;;2.97;2.67;;;;;;;;;;5076049;28;20025;-71
2022/06/16 13:12:21;;;;;;;4.55;2.78;;;;;;;;;;5060655;28;20677;-70
2022/06/16 13:14:50;;;;;;;5.20;2.80;;;;;;;;;;5061645;28;20725;-70
2022/06/16 13:17:16;;;;;;;3.90;2.85;;;;;;;;;;5043901;28;20396;-71
2022/06/16 13:19:46;;;;;;;2.85;2.40;;;;;;;;;;5060307;28;20479;-70
2022/06/16 13:22:31;;;;;;;4.78;2.92;;;;;;;;;;5061430;28;20040;-71
2022/06/16 13:24:59;;;;;;;3.78;2.72;;;;;;;;;;5061740;28;20109;-70
2022/06/16 13:27:25;;;;;;;4.22;2.80;;;;;;;;;;5062041;28;20032;-71
2022/06/16 13:29:51;;;;;;;5.13;2.78;;;;;;;;;;5061149;28;20210;-70
2022/06/16 13:32:36;;;;;;;4.13;2.80;;;;;;;;;;5061586;28;20446;-70
2022/06/16 13:35:22;;;;;;;5.30;2.63;;;;;;;;;;5059841;28;20024;-71
2022/06/16 13:37:49;;;;;;;3.13;2.83;;;;;;;;;;5060848;28;20492;-71
2022/06/16 13:40:15;;;;;;;4.47;2.40;;;;;;;;;;5061753;28;20047;-71
2022/06/16 13:42:43;;;;;;;3.55;2.95;;;;;;;;;;5061952;28;20032;-70
2022/06/16 13:45:12;;;;;;;2.45;2.15;;;;;;;;;;5060337;28;20064;-70
2022/06/16 13:47:45;;;;;;;4.80;2.33;;;;;;;;;;5060903;28;20403;-70
2022/06/16 13:50:20;;;;;;;3.78;2.70;;;;;;;;;;5061577;28;20017;-70
2022/06/16 13:52:58;;;;;;;2.78;2.20;;;;;;;;;;5061457;28;20021;-71
2022/06/16 13:55:31;;;;;;;9.65;2.60;;;;;;;;;;5061626;28;20040;-70
2022/06/16 13:58:16;;;;;;;3.70;2.58;;;;;;;;;;5061220;28;20032;-70
2022/06/16 14:00:43;;;;;;;4.85;2.88;;;;;;;;;;5059839;28;20020;-70
2022/06/16 14:03:35;;;;;;;5.45;2.47;;;;;;;;;;5061565;28;20032;-70
2022/06/16 14:06:13;;;;;;;5.07;2.40;;;;;;;;;;5043805;28;20067;-70
2022/06/16 14:08:44;;;;;;;3.42;2.63;;;;;;;;;;5070330;28;20027;-70
2022/06/16 14:11:16;;;;;;;2.95;2.60;;;;;;;;;;5065126;28;20551;-70
2022/06/16 14:13:47;;;;;;;3.90;2.65;;;;;;;;;;5043189;28;20032;-70
2022/06/16 14:16:13;;;;;;;3.22;2.45;;;;;;;;;;5059539;28;20036;-70
2022/06/16 14:18:49;;;;;;;2.90;2.60;;;;;;;;;;5060768;28;20020;-70
2022/06/16 14:21:17;;;;;;;5.55;2.38;;;;;;;;;;5061058;28;20067;-70
2022/06/16 14:24:09;;;;;;;2.97;2.35;;;;;;;;;;5060689;28;20495;-70
2022/06/16 14:26:38;;;;;;;5.82;2.58;;;;;;;;;;5056131;28;20036;-70
2022/06/16 14:29:10;;;;;;;3.35;2.40;;;;;;;;;;5060497;28;20047;-72
2022/06/16 14:31:41;;;;;;;2.78;2.08;;;;;;;;;;5060833;28;20028;-70
2022/06/16 14:34:08;;;;;;;3.72;2.50;;;;;;;;;;5059835;28;20059;-70
2022/06/16 14:36:37;;;;;;;3.00;1.98;;;;;;;;;;5061051;28;20056;-70
2022/06/16 14:39:04;;;;;;;4.32;2.20;;;;;;;;;;5060679;28;20044;-70
2022/06/16 14:41:36;;;;;;;3.38;2.17;;;;;;;;;;5063173;28;20025;-70
2022/06/16 14:44:05;;;;;;;2.30;2.05;;;;;;;;;;5051773;28;20036;-70
2022/06/16 14:46:36;;;;;;;5.05;2.38;;;;;;;;;;5065110;28;20663;-71
2022/06/16 14:49:04;;;;;;;2.92;2.40;;;;;;;;;;5063051;28;20027;-70
2022/06/16 14:51:33;;;;;;;4.30;2.13;;;;;;;;;;5064390;28;20436;-70
2022/06/16 14:54:04;;;;;;;2.80;2.35;;;;;;;;;;5046420;28;20682;-71
2022/06/16 14:56:39;;;;;;;4.72;2.20;;;;;;;;;;5065059;28;20373;-70
2022/06/16 14:59:08;;;;;;;2.35;2.08;;;;;;;;;;5064218;28;20023;-71
2022/06/16 15:01:37;;;;;;;4.57;2.47;;;;;;;;;;5058147;28;20138;-71
2022/06/16 15:04:08;;;;;;;4.95;2.60;;;;;;;;;;5062468;28;20025;-70
2022/06/16 15:06:41;;;;;;;3.28;2.65;;;;;;;;;;5064653;28;20035;-71
2022/06/16 15:09:09;;;;;;;3.95;2.30;;;;;;;;;;5077893;28;20053;-70
2022/06/16 15:11:39;;;;;;;4.35;2.65;;;;;;;;;;5078468;28;20032;-70
2022/06/16 15:14:07;;;;;;;3.85;2.72;;;;;;;;;;5062719;28;20413;-70
2022/06/16 15:19:23;;;;;;;5.63;2.70;;;;;;;;;;5064002;28;20089;-70